Time;durP1;ratioP1;P1;durP2;ratioP2;P2;SDS_P1;SDS_P2;PMS_P1;PMS_P2;Temp;Humidity;BMP_temperature;BMP_pressure;BME280_temperature;BME280_humidity;BME280_pressure;Samples;Min_cycle;Max_cycle;Signal;HPM_P1;HPM_P2
2022/07/07 00:00:12;;;;;;;3.00;2.70;;;25.10;35.50;;;;;;5068265;28;45403;-75
2022/07/07 00:02:39;;;;;;;3.28;2.78;;;25.10;35.60;;;;;;5067905;28;45392;-76
2022/07/07 00:05:07;;;;;;;2.72;2.53;;;25.10;35.60;;;;;;5068051;28;45416;-76
2022/07/07 00:07:34;;;;;;;3.10;2.80;;;25.00;35.50;;;;;;5067552;28;45174;-76
2022/07/07 00:10:01;;;;;;;2.65;2.45;;;25.00;35.60;;;;;;5068249;28;45170;-75
2022/07/07 00:12:27;;;;;;;2.90;2.70;;;25.00;35.60;;;;;;5067654;28;47304;-75
2022/07/07 00:14:54;;;;;;;3.80;2.70;;;25.00;35.60;;;;;;5067765;28;45258;-75
2022/07/07 00:17:21;;;;;;;2.95;2.70;;;25.00;35.60;;;;;;5067923;28;45263;-75
2022/07/07 00:19:48;;;;;;;2.83;2.60;;;25.00;35.80;;;;;;5068064;28;45348;-75
2022/07/07 00:22:16;;;;;;;2.72;2.50;;;25.00;35.80;;;;;;5067573;28;45214;-76
2022/07/07 00:24:43;;;;;;;2.95;2.35;;;25.00;35.80;;;;;;5067718;28;45317;-76
2022/07/07 00:27:09;;;;;;;5.00;2.30;;;24.90;35.80;;;;;;5067721;28;45331;-75
2022/07/07 00:29:36;;;;;;;2.45;2.25;;;24.90;35.90;;;;;;5054977;28;45455;-75
2022/07/07 00:32:04;;;;;;;2.55;2.35;;;24.90;35.80;;;;;;5047219;28;46682;-75
2022/07/07 00:34:30;;;;;;;3.33;2.40;;;24.90;35.90;;;;;;5047379;28;45156;-76
2022/07/07 00:36:57;;;;;;;2.40;2.20;;;24.90;35.90;;;;;;5046681;28;45223;-76
2022/07/07 00:39:25;;;;;;;3.63;2.25;;;24.90;36.00;;;;;;5047473;28;45306;-76
2022/07/07 00:41:52;;;;;;;2.40;2.20;;;24.80;36.00;;;;;;5047086;28;46493;-76
2022/07/07 00:44:20;;;;;;;2.15;2.05;;;24.80;36.00;;;;;;5047188;28;45281;-76
2022/07/07 00:46:47;;;;;;;2.47;2.10;;;24.80;36.00;;;;;;5047284;28;45200;-76
2022/07/07 00:49:14;;;;;;;2.58;2.10;;;24.80;36.00;;;;;;5047319;28;45272;-76
2022/07/07 00:51:42;;;;;;;2.25;2.00;;;24.80;36.60;;;;;;5046886;28;46684;-76
2022/07/07 00:54:09;;;;;;;3.60;2.10;;;24.80;36.00;;;;;;5046944;28;45205;-76
2022/07/07 00:56:37;;;;;;;2.10;1.90;;;24.80;36.10;;;;;;5047088;28;45195;-75
2022/07/07 00:59:06;;;;;;;2.42;1.95;;;24.80;36.10;;;;;;5047243;28;45233;-76
2022/07/07 01:01:37;;;;;;;3.80;2.10;;;24.70;36.00;;;;;;5046733;28;46382;-76
2022/07/07 01:04:05;;;;;;;2.00;1.90;;;24.70;36.10;;;;;;5046825;28;45230;-76
2022/07/07 01:06:31;;;;;;;2.03;1.77;;;24.70;36.10;;;;;;5047247;28;45318;-76
2022/07/07 01:08:58;;;;;;;3.38;2.08;;;24.70;36.10;;;;;;5046949;28;45242;-76
2022/07/07 01:11:25;;;;;;;2.25;1.88;;;24.70;36.20;;;;;;5046575;28;45280;-76
2022/07/07 01:13:53;;;;;;;2.20;2.00;;;24.70;36.20;;;;;;5046638;28;45337;-76
2022/07/07 01:16:20;;;;;;;1.77;1.60;;;24.60;36.20;;;;;;5046858;28;45323;-76
2022/07/07 01:18:47;;;;;;;2.03;1.90;;;24.60;36.30;;;;;;5046293;28;45330;-76
2022/07/07 01:21:14;;;;;;;1.85;1.75;;;24.60;36.30;;;;;;5046477;28;47644;-76
2022/07/07 01:23:42;;;;;;;1.80;1.70;;;24.60;36.30;;;;;;5046554;28;45199;-75
2022/07/07 01:26:09;;;;;;;2.30;1.80;;;24.60;36.30;;;;;;5046106;28;45343;-76
2022/07/07 01:28:36;;;;;;;2.25;1.95;;;24.60;36.30;;;;;;5051158;28;45308;-76
2022/07/07 01:31:03;;;;;;;2.13;1.60;;;24.50;36.30;;;;;;5066674;28;46736;-77
2022/07/07 01:33:30;;;;;;;2.95;1.90;;;24.50;36.30;;;;;;5066675;28;45199;-76
2022/07/07 01:35:56;;;;;;;1.80;1.70;;;24.50;36.30;;;;;;5066874;28;45139;-76
2022/07/07 01:38:23;;;;;;;1.92;1.83;;;24.50;36.30;;;;;;5066930;28;45189;-76
2022/07/07 01:40:51;;;;;;;1.85;1.60;;;24.50;36.30;;;;;;5066547;28;46677;-76
2022/07/07 01:43:18;;;;;;;2.15;1.63;;;24.40;36.40;;;;;;5066495;28;45253;-76
2022/07/07 01:45:45;;;;;;;1.90;1.45;;;24.50;36.40;;;;;;5066644;28;45242;-76
2022/07/07 01:48:12;;;;;;;1.90;1.60;;;24.50;36.40;;;;;;5066748;28;45192;-76
2022/07/07 01:50:38;;;;;;;1.75;1.63;;;24.40;36.40;;;;;;5066367;28;46335;-76
2022/07/07 01:53:05;;;;;;;1.98;1.60;;;24.40;36.50;;;;;;5066229;28;45363;-76
2022/07/07 01:55:32;;;;;;;2.35;1.65;;;24.40;36.40;;;;;;5066720;28;45301;-76
2022/07/07 01:58:00;;;;;;;2.38;1.50;;;24.40;36.40;;;;;;5066607;28;45426;-76
2022/07/07 02:00:27;;;;;;;1.70;1.50;;;24.30;36.40;;;;;;5066297;28;45202;-76
2022/07/07 02:02:54;;;;;;;1.50;1.40;;;24.30;36.50;;;;;;5066168;28;45230;-76
2022/07/07 02:05:21;;;;;;;1.48;1.38;;;24.30;36.50;;;;;;5066512;28;45381;-76
2022/07/07 02:07:48;;;;;;;1.65;1.42;;;24.30;36.50;;;;;;5066130;28;45256;-75
2022/07/07 02:11:12;;;;;;;1.60;1.50;;;24.30;36.60;;;;;;5065401;28;47610;-76
2022/07/07 02:13:04;;;;;;;1.40;1.30;;;24.30;36.60;;;;;;5065809;28;45202;-76
2022/07/07 02:15:31;;;;;;;1.70;1.45;;;24.30;36.60;;;;;;5066155;28;45341;-75
2022/07/07 02:17:58;;;;;;;1.50;1.40;;;24.30;36.60;;;;;;5062965;28;45348;-75
2022/07/07 02:20:25;;;;;;;1.60;1.50;;;24.20;36.60;;;;;;5065979;28;46659;-74
2022/07/07 02:22:52;;;;;;;1.40;1.30;;;24.20;36.50;;;;;;5065859;28;45203;-75
2022/07/07 02:25:19;;;;;;;1.20;1.20;;;24.20;36.70;;;;;;5066123;28;45216;-75
2022/07/07 02:27:46;;;;;;;3.15;1.50;;;24.20;36.80;;;;;;5066353;28;45388;-76
2022/07/07 02:30:14;;;;;;;1.52;1.40;;;24.20;36.70;;;;;;5048096;28;45361;-76
2022/07/07 02:32:40;;;;;;;2.20;1.20;;;24.20;36.70;;;;;;5048675;28;45124;-75
2022/07/07 02:35:08;;;;;;;1.35;1.25;;;24.10;36.70;;;;;;5049342;28;45130;-75
2022/07/07 02:37:35;;;;;;;1.50;1.40;;;24.10;36.70;;;;;;5049479;28;45341;-75
2022/07/07 02:40:02;;;;;;;1.40;1.30;;;24.10;36.70;;;;;;5048992;28;45379;-76
2022/07/07 02:42:29;;;;;;;1.35;1.25;;;24.10;36.80;;;;;;5049070;28;45317;-76
2022/07/07 02:44:55;;;;;;;1.33;1.02;;;24.10;37.40;;;;;;5049222;28;45213;-76
2022/07/07 02:47:23;;;;;;;1.70;1.27;;;24.10;36.80;;;;;;5049353;28;45400;-75
2022/07/07 02:49:51;;;;;;;1.27;1.17;;;24.00;36.80;;;;;;5048919;28;45254;-76
2022/07/07 02:52:17;;;;;;;1.40;1.30;;;24.00;36.90;;;;;;5048969;28;45349;-76
2022/07/07 02:54:44;;;;;;;2.10;1.50;;;24.00;36.80;;;;;;5049019;28;45438;-76
2022/07/07 02:57:11;;;;;;;1.70;1.40;;;24.00;36.90;;;;;;5046685;28;45219;-76
2022/07/07 02:59:38;;;;;;;1.40;1.30;;;24.00;36.90;;;;;;5048916;28;46589;-76
2022/07/07 03:02:05;;;;;;;1.33;1.23;;;24.00;36.90;;;;;;5048119;28;45226;-76
2022/07/07 03:04:33;;;;;;;1.63;1.20;;;24.00;36.90;;;;;;5048876;28;45277;-76
2022/07/07 03:07:00;;;;;;;1.20;1.10;;;24.00;37.60;;;;;;5048954;28;45462;-77
2022/07/07 03:09:27;;;;;;;1.30;1.20;;;24.00;37.00;;;;;;5048634;28;46303;-76
2022/07/07 03:11:54;;;;;;;1.65;1.20;;;23.90;37.00;;;;;;5048739;28;45201;-77
2022/07/07 03:14:21;;;;;;;1.30;1.20;;;23.90;37.00;;;;;;5048766;28;45343;-77
2022/07/07 03:16:48;;;;;;;2.38;1.23;;;23.90;37.00;;;;;;5048783;28;45461;-76
2022/07/07 03:19:14;;;;;;;1.45;1.30;;;23.90;37.10;;;;;;5048435;28;45246;-75
2022/07/07 03:21:43;;;;;;;1.38;1.20;;;23.90;37.10;;;;;;5048456;28;45128;-77
2022/07/07 03:24:09;;;;;;;1.15;1.05;;;23.90;37.20;;;;;;5048574;28;45143;-76
2022/07/07 03:26:36;;;;;;;1.42;1.20;;;23.80;37.10;;;;;;5048796;28;45460;-75
2022/07/07 03:29:03;;;;;;;1.40;1.30;;;23.80;37.20;;;;;;5056340;28;45369;-77
2022/07/07 03:31:30;;;;;;;1.63;1.30;;;23.80;37.20;;;;;;5068573;28;45380;-77
2022/07/07 03:33:57;;;;;;;1.25;1.15;;;23.80;37.20;;;;;;5068946;28;45238;-77
2022/07/07 03:36:24;;;;;;;1.83;1.38;;;23.80;37.20;;;;;;5068838;28;45276;-76
2022/07/07 03:38:52;;;;;;;2.08;1.25;;;23.80;37.20;;;;;;5068364;28;47536;-76
2022/07/07 03:41:19;;;;;;;1.40;1.30;;;23.70;37.20;;;;;;5068399;28;45309;-76
2022/07/07 03:43:46;;;;;;;1.30;1.10;;;23.70;37.40;;;;;;5067984;28;45321;-77
2022/07/07 03:46:12;;;;;;;1.40;1.30;;;23.70;37.40;;;;;;5068179;28;45393;-74
2022/07/07 03:48:39;;;;;;;1.10;1.10;;;23.70;37.30;;;;;;5067668;28;45223;-76
2022/07/07 03:51:06;;;;;;;1.15;1.10;;;23.70;37.40;;;;;;5068247;28;45266;-76
2022/07/07 03:53:33;;;;;;;1.23;1.05;;;23.70;37.40;;;;;;5068395;28;45316;-77
2022/07/07 03:56:01;;;;;;;1.00;1.00;;;23.70;37.40;;;;;;5068283;28;45371;-77
2022/07/07 03:58:28;;;;;;;1.00;1.00;;;23.60;37.40;;;;;;5067923;28;45288;-76
2022/07/07 04:00:55;;;;;;;1.38;1.27;;;23.60;37.40;;;;;;5068077;28;45214;-76
2022/07/07 04:03:22;;;;;;;0.98;0.98;;;23.60;37.50;;;;;;5068151;28;45321;-77
2022/07/07 04:05:49;;;;;;;1.33;1.23;;;23.60;37.50;;;;;;5068283;28;45436;-77
2022/07/07 04:08:15;;;;;;;1.45;1.35;;;23.50;37.50;;;;;;5067532;28;45464;-75
2022/07/07 04:10:42;;;;;;;1.30;1.25;;;23.50;37.60;;;;;;5067902;28;45142;-76
2022/07/07 04:13:11;;;;;;;1.35;0.95;;;23.50;37.50;;;;;;5067942;28;45131;-77
2022/07/07 04:15:38;;;;;;;1.05;0.95;;;23.50;37.60;;;;;;5068106;28;45248;-77
2022/07/07 04:18:04;;;;;;;1.25;1.15;;;23.50;37.70;;;;;;5067631;28;46409;-77
2022/07/07 04:20:31;;;;;;;1.05;1.05;;;23.50;37.60;;;;;;5067827;28;45155;-77
2022/07/07 04:22:58;;;;;;;1.10;1.00;;;23.50;37.70;;;;;;5067747;28;45186;-77
2022/07/07 04:25:25;;;;;;;1.23;1.10;;;23.40;37.60;;;;;;5068044;28;45183;-77
2022/07/07 04:27:52;;;;;;;1.55;1.10;;;23.40;37.60;;;;;;5067559;28;47655;-76
2022/07/07 04:30:20;;;;;;;1.73;1.10;;;23.40;37.60;;;;;;5048861;28;45334;-76
2022/07/07 04:32:47;;;;;;;0.93;0.93;;;23.40;37.60;;;;;;5046865;28;45194;-76
2022/07/07 04:35:14;;;;;;;1.17;1.08;;;23.40;37.70;;;;;;5047768;28;45184;-77
2022/07/07 04:37:40;;;;;;;1.60;1.20;;;23.40;37.60;;;;;;5047276;28;45231;-76
2022/07/07 04:40:08;;;;;;;0.90;0.90;;;23.40;37.70;;;;;;5047256;28;45334;-76
2022/07/07 04:42:35;;;;;;;0.90;0.90;;;23.40;38.40;;;;;;5047560;28;45293;-77
2022/07/07 04:45:01;;;;;;;1.58;1.08;;;23.40;37.70;;;;;;5047518;28;45189;-77
2022/07/07 04:47:30;;;;;;;1.10;1.00;;;23.30;37.70;;;;;;5047086;28;46391;-77
2022/07/07 04:49:56;;;;;;;1.30;1.20;;;23.30;38.30;;;;;;5047196;28;45281;-77
2022/07/07 04:52:23;;;;;;;1.90;0.98;;;23.30;37.70;;;;;;5047265;28;45297;-76
2022/07/07 04:54:50;;;;;;;1.65;1.00;;;23.30;37.70;;;;;;5046394;28;45400;-76
2022/07/07 04:57:17;;;;;;;1.25;0.85;;;23.30;37.70;;;;;;5047100;28;46374;-76
2022/07/07 04:59:44;;;;;;;1.13;1.10;;;23.30;37.70;;;;;;5046935;28;45235;-76
2022/07/07 05:02:11;;;;;;;1.10;1.10;;;23.30;37.80;;;;;;5047175;28;45155;-76
2022/07/07 05:04:39;;;;;;;1.13;1.02;;;23.30;37.90;;;;;;5046967;28;45278;-76
2022/07/07 05:07:06;;;;;;;1.27;0.90;;;23.30;37.90;;;;;;5046799;28;45359;-75
2022/07/07 05:09:34;;;;;;;1.02;1.00;;;23.30;37.90;;;;;;5047198;28;45260;-76
2022/07/07 05:12:01;;;;;;;2.25;0.90;;;23.20;37.90;;;;;;5047162;28;45124;-77
2022/07/07 05:14:28;;;;;;;1.05;0.90;;;23.20;37.90;;;;;;5047444;28;45464;-76
2022/07/07 05:16:55;;;;;;;0.90;0.90;;;23.30;38.00;;;;;;5046028;28;46423;-76
2022/07/07 05:19:22;;;;;;;1.63;1.25;;;23.30;37.90;;;;;;5046419;28;45248;-76
2022/07/07 05:21:50;;;;;;;1.00;0.98;;;23.30;37.80;;;;;;5047087;28;45204;-76
2022/07/07 05:24:17;;;;;;;1.10;1.00;;;23.30;37.90;;;;;;5046988;28;45265;-76
2022/07/07 05:26:44;;;;;;;0.90;0.90;;;23.30;37.80;;;;;;5046753;28;45358;-76
2022/07/07 05:29:11;;;;;;;1.13;1.00;;;23.30;37.80;;;;;;5056026;28;45338;-76
2022/07/07 05:31:37;;;;;;;1.10;1.10;;;23.40;37.80;;;;;;5067024;28;45166;-75
2022/07/07 05:34:04;;;;;;;1.00;1.00;;;23.30;37.80;;;;;;5067205;28;45145;-76
2022/07/07 05:36:32;;;;;;;1.10;1.00;;;23.40;37.90;;;;;;5067019;28;46388;-76
2022/07/07 05:39:00;;;;;;;1.00;0.90;;;23.30;37.80;;;;;;5066752;28;45328;-76
2022/07/07 05:41:27;;;;;;;1.42;1.10;;;23.30;37.80;;;;;;5066959;28;45392;-76
2022/07/07 05:43:53;;;;;;;1.65;1.10;;;23.40;37.90;;;;;;5069290;28;45165;-77
2022/07/07 05:46:20;;;;;;;1.95;0.80;;;23.40;37.80;;;;;;5068189;28;45210;-76
2022/07/07 05:48:47;;;;;;;0.98;0.85;;;23.30;37.90;;;;;;5067390;28;45349;-76
2022/07/07 05:51:14;;;;;;;0.80;0.80;;;23.40;37.90;;;;;;5066776;28;45246;-76
2022/07/07 05:53:41;;;;;;;0.95;0.95;;;23.40;37.90;;;;;;5066864;28;45405;-75
2022/07/07 05:56:09;;;;;;;1.00;0.98;;;23.40;37.90;;;;;;5067583;28;45204;-75
2022/07/07 05:58:36;;;;;;;1.83;1.10;;;23.40;37.90;;;;;;5066854;28;45155;-76
2022/07/07 06:01:04;;;;;;;1.58;1.10;;;23.40;37.90;;;;;;5066265;28;45381;-74
2022/07/07 06:03:30;;;;;;;1.90;1.00;;;23.40;37.90;;;;;;5065973;28;45573;-76
2022/07/07 06:05:57;;;;;;;1.42;0.80;;;23.40;37.90;;;;;;5068279;28;46511;-76
2022/07/07 06:08:24;;;;;;;1.08;0.95;;;23.40;37.90;;;;;;5069724;28;45158;-76
2022/07/07 06:10:51;;;;;;;1.40;1.30;;;23.40;37.90;;;;;;5070008;28;45200;-76
2022/07/07 06:13:20;;;;;;;1.55;1.20;;;23.40;37.90;;;;;;5069953;28;45514;-76
2022/07/07 06:15:46;;;;;;;1.25;1.08;;;23.50;38.00;;;;;;5069630;28;45325;-75
2022/07/07 06:18:13;;;;;;;1.00;1.00;;;23.40;37.90;;;;;;5069780;28;45183;-75
2022/07/07 06:20:40;;;;;;;1.85;0.90;;;23.50;37.90;;;;;;5070001;28;45186;-75
2022/07/07 06:23:07;;;;;;;1.02;1.02;;;23.50;37.90;;;;;;5070076;28;45440;-75
2022/07/07 06:25:34;;;;;;;1.98;0.90;;;23.50;37.90;;;;;;5069659;28;45338;-75
2022/07/07 06:28:01;;;;;;;1.17;1.08;;;23.50;37.90;;;;;;5069450;28;45339;-75
2022/07/07 06:30:29;;;;;;;2.63;0.98;;;23.50;37.90;;;;;;5069722;28;45213;-75
2022/07/07 06:32:56;;;;;;;1.02;0.93;;;23.50;37.90;;;;;;5069988;28;45459;-75
2022/07/07 06:35:24;;;;;;;0.88;0.88;;;23.50;37.90;;;;;;5069493;28;46581;-75
2022/07/07 06:37:52;;;;;;;1.13;0.90;;;23.50;37.90;;;;;;5069028;28;45502;-75
2022/07/07 06:40:19;;;;;;;2.78;1.15;;;23.60;38.00;;;;;;5069562;28;45204;-75
2022/07/07 06:42:46;;;;;;;1.20;1.10;;;23.60;38.00;;;;;;5069599;28;45178;-75
2022/07/07 06:45:13;;;;;;;1.60;0.85;;;23.50;37.90;;;;;;5069594;28;46382;-74
2022/07/07 06:47:41;;;;;;;1.40;1.10;;;23.60;38.00;;;;;;5068585;28;45305;-75
2022/07/07 06:50:09;;;;;;;0.90;0.90;;;23.60;38.00;;;;;;5068772;28;45254;-75
2022/07/07 06:52:36;;;;;;;1.83;1.05;;;23.60;38.00;;;;;;5069518;28;45138;-75
2022/07/07 06:55:03;;;;;;;1.20;1.10;;;23.60;38.00;;;;;;5069169;28;45747;-75
2022/07/07 06:57:30;;;;;;;1.77;1.15;;;23.60;38.00;;;;;;5069145;28;45312;-75
2022/07/07 06:59:56;;;;;;;1.20;1.10;;;23.60;38.00;;;;;;5069458;28;45316;-75
2022/07/07 07:02:23;;;;;;;1.10;1.00;;;23.70;38.10;;;;;;5069352;28;45270;-75
2022/07/07 07:04:51;;;;;;;1.00;1.00;;;23.70;38.10;;;;;;5068933;28;46538;-75
2022/07/07 07:07:18;;;;;;;1.60;1.23;;;23.70;38.10;;;;;;5068590;28;45462;-75
2022/07/07 07:09:45;;;;;;;1.42;1.33;;;23.70;38.10;;;;;;5069031;28;45313;-75
2022/07/07 07:12:12;;;;;;;0.90;0.90;;;23.70;38.10;;;;;;5068969;28;45322;-75
2022/07/07 07:14:39;;;;;;;1.08;0.95;;;23.70;38.10;;;;;;5068743;28;46652;-74
2022/07/07 07:17:06;;;;;;;1.00;1.00;;;23.70;38.20;;;;;;5067628;28;45184;-75
2022/07/07 07:19:32;;;;;;;1.13;1.00;;;23.70;38.20;;;;;;5068900;28;45145;-75
2022/07/07 07:22:01;;;;;;;2.03;1.15;;;23.70;38.20;;;;;;5068950;28;45273;-75
2022/07/07 07:24:27;;;;;;;2.80;1.10;;;23.80;38.20;;;;;;5068444;28;45498;-74
2022/07/07 07:26:54;;;;;;;2.85;1.23;;;23.80;38.20;;;;;;5068601;28;45130;-74
2022/07/07 07:29:21;;;;;;;1.48;1.05;;;23.80;38.20;;;;;;5058055;28;45341;-75
2022/07/07 07:31:49;;;;;;;1.23;1.13;;;23.80;38.20;;;;;;5048813;28;45329;-75
2022/07/07 07:34:16;;;;;;;1.38;0.90;;;23.80;38.20;;;;;;5047511;28;45277;-75
2022/07/07 07:36:43;;;;;;;1.65;1.17;;;23.80;38.30;;;;;;5048214;28;45339;-75
2022/07/07 07:39:11;;;;;;;1.73;1.08;;;23.90;38.30;;;;;;5048213;28;45182;-75
2022/07/07 07:41:38;;;;;;;1.13;1.13;;;23.90;38.30;;;;;;5048495;28;45199;-74
2022/07/07 07:44:05;;;;;;;1.20;1.10;;;23.90;38.30;;;;;;5047999;28;47587;-74
2022/07/07 07:46:32;;;;;;;1.17;1.10;;;23.90;38.30;;;;;;5046720;28;45306;-75
2022/07/07 07:49:00;;;;;;;2.20;1.10;;;24.00;39.00;;;;;;5048079;28;45210;-75
2022/07/07 07:51:27;;;;;;;3.33;1.35;;;24.00;38.60;;;;;;5048428;28;45402;-75
2022/07/07 07:53:53;;;;;;;3.10;1.27;;;24.00;40.10;;;;;;5047536;28;45476;-75
2022/07/07 07:56:22;;;;;;;1.92;1.20;;;24.00;41.20;;;;;;5047744;28;45383;-75
2022/07/07 07:58:48;;;;;;;1.95;0.90;;;24.00;41.30;;;;;;5047788;28;45195;-74
2022/07/07 08:01:15;;;;;;;1.63;1.10;;;23.90;41.20;;;;;;5048062;28;45294;-74
2022/07/07 08:03:42;;;;;;;2.95;1.30;;;23.90;41.20;;;;;;5047525;28;46422;-75
2022/07/07 08:06:09;;;;;;;1.42;1.10;;;24.00;41.30;;;;;;5047762;28;45322;-74
2022/07/07 08:08:36;;;;;;;4.45;1.98;;;24.00;41.60;;;;;;5047369;28;45274;-74
2022/07/07 08:11:02;;;;;;;2.80;1.70;;;24.00;41.40;;;;;;5047955;28;45511;-75
2022/07/07 08:13:31;;;;;;;3.42;1.88;;;24.00;41.10;;;;;;5047583;28;46813;-75
2022/07/07 08:15:57;;;;;;;4.88;1.92;;;24.10;41.10;;;;;;5047441;28;45203;-74
2022/07/07 08:18:26;;;;;;;3.33;1.90;;;24.10;41.00;;;;;;5046919;28;45504;-74
2022/07/07 08:20:53;;;;;;;5.18;2.10;;;24.10;40.70;;;;;;5047128;28;45368;-75
2022/07/07 08:23:20;;;;;;;5.30;1.73;;;24.20;41.70;;;;;;5046951;28;45665;-74
2022/07/07 08:25:47;;;;;;;3.65;1.30;;;24.20;41.00;;;;;;5047012;28;45230;-74
2022/07/07 08:28:14;;;;;;;3.08;1.23;;;24.20;41.10;;;;;;5048417;28;45270;-74
2022/07/07 08:30:42;;;;;;;3.97;1.70;;;24.20;40.60;;;;;;5067884;28;45271;-74
2022/07/07 08:33:09;;;;;;;1.85;1.10;;;24.30;40.20;;;;;;5067461;28;46684;-74
2022/07/07 08:35:35;;;;;;;3.05;1.40;;;24.30;40.20;;;;;;5067314;28;45212;-74
2022/07/07 08:38:02;;;;;;;2.60;1.50;;;24.30;40.30;;;;;;5067391;28;45368;-75
2022/07/07 08:40:29;;;;;;;3.38;1.30;;;24.30;40.20;;;;;;5067576;28;45412;-75
2022/07/07 08:42:56;;;;;;;4.10;1.52;;;24.30;39.60;;;;;;5066958;28;46419;-75
2022/07/07 08:45:23;;;;;;;3.63;1.33;;;24.30;39.30;;;;;;5067127;28;45306;-75
2022/07/07 08:47:51;;;;;;;2.97;1.20;;;24.30;39.30;;;;;;5066680;28;45257;-75
2022/07/07 08:50:18;;;;;;;2.80;1.23;;;24.40;39.30;;;;;;5067126;28;45514;-75
2022/07/07 08:52:50;;;;;;;2.85;1.20;;;24.30;39.20;;;;;;5066144;28;45296;-74
2022/07/07 08:55:17;;;;;;;3.13;1.20;;;24.40;39.50;;;;;;5067053;28;45324;-75
2022/07/07 08:57:44;;;;;;;3.90;1.50;;;24.40;39.30;;;;;;5067210;28;45211;-74
2022/07/07 09:00:12;;;;;;;1.52;1.08;;;24.50;39.10;;;;;;5067252;28;45451;-75
2022/07/07 09:02:38;;;;;;;3.38;1.08;;;24.50;39.30;;;;;;5067019;28;45573;-74
2022/07/07 09:05:07;;;;;;;3.10;1.27;;;24.50;39.10;;;;;;5066073;28;45228;-73
2022/07/07 09:07:47;;;;;;;1.50;1.13;;;24.50;39.20;;;;;;5066388;28;45196;-74
2022/07/07 09:10:27;;;;;;;1.50;1.13;;;24.50;39.50;;;;;;5066584;28;45286;-75
2022/07/07 09:12:54;;;;;;;1.38;1.10;;;24.60;39.20;;;;;;5066485;28;45321;-73
2022/07/07 09:15:21;;;;;;;3.05;1.00;;;24.60;39.10;;;;;;5066264;28;45286;-74
2022/07/07 09:17:48;;;;;;;4.10;1.17;;;24.60;39.30;;;;;;5066992;28;45372;-74
2022/07/07 09:20:16;;;;;;;3.03;1.10;;;24.60;39.10;;;;;;5066901;28;45268;-74
2022/07/07 09:22:48;;;;;;;3.72;1.35;;;24.60;38.70;;;;;;5066226;28;46674;-74
2022/07/07 09:25:15;;;;;;;2.55;1.08;;;24.60;38.60;;;;;;5066240;28;45246;-74
2022/07/07 09:27:56;;;;;;;4.55;1.10;;;24.60;38.70;;;;;;5066843;28;45209;-74
2022/07/07 09:30:27;;;;;;;1.50;1.02;;;24.60;38.50;;;;;;5066506;28;45278;-74
2022/07/07 09:32:53;;;;;;;3.42;1.20;;;24.60;38.50;;;;;;5065892;28;46469;-74
2022/07/07 09:38:16;;;;;;;2.38;1.02;;;24.60;38.50;;;;;;5027180;28;45507;-74
2022/07/07 09:40:51;;;;;;;1.30;1.15;;;24.70;38.30;;;;;;5070210;28;45583;-74
2022/07/07 09:43:17;;;;;;;4.97;1.38;;;24.70;38.10;;;;;;5072910;28;45262;-74
2022/07/07 09:45:46;;;;;;;4.18;1.20;;;24.70;38.20;;;;;;5073029;28;45330;-74
2022/07/07 09:48:14;;;;;;;1.42;1.00;;;24.60;38.20;;;;;;5072975;28;45393;-74
2022/07/07 09:50:42;;;;;;;4.20;1.20;;;24.60;38.30;;;;;;5073563;28;45292;-74
2022/07/07 09:53:08;;;;;;;4.10;1.20;;;24.70;38.50;;;;;;5072310;28;46919;-75
2022/07/07 09:55:35;;;;;;;5.45;1.52;;;24.70;38.30;;;;;;5073863;28;45205;-74
2022/07/07 09:58:03;;;;;;;2.08;1.17;;;24.70;38.40;;;;;;5073237;28;45182;-74
2022/07/07 10:00:31;;;;;;;2.25;1.40;;;24.70;38.70;;;;;;5072639;28;45375;-73
2022/07/07 10:02:58;;;;;;;5.13;1.40;;;24.70;38.80;;;;;;5072314;28;45269;-73
2022/07/07 10:05:25;;;;;;;3.65;1.25;;;24.70;38.90;;;;;;5073025;28;45189;-74
2022/07/07 10:07:53;;;;;;;3.28;1.50;;;24.80;39.00;;;;;;5072758;28;45230;-74
2022/07/07 10:10:21;;;;;;;3.10;1.17;;;24.80;38.90;;;;;;5070446;28;45346;-74
2022/07/07 10:12:49;;;;;;;4.47;1.58;;;24.80;38.90;;;;;;5072758;28;46636;-73
2022/07/07 10:15:16;;;;;;;2.03;1.10;;;24.80;39.10;;;;;;5072592;28;45170;-74
2022/07/07 10:17:43;;;;;;;4.03;1.30;;;24.90;39.20;;;;;;5072859;28;45343;-73
2022/07/07 10:20:11;;;;;;;2.95;1.40;;;25.00;39.10;;;;;;5073272;28;45455;-74
2022/07/07 10:22:38;;;;;;;4.68;1.48;;;25.00;39.10;;;;;;5072394;28;45455;-73
2022/07/07 10:25:07;;;;;;;2.95;1.45;;;25.00;39.10;;;;;;5072368;28;45293;-73
2022/07/07 10:27:34;;;;;;;2.97;1.50;;;25.10;39.30;;;;;;5073021;28;45207;-74
2022/07/07 10:30:01;;;;;;;3.03;1.20;;;25.10;39.30;;;;;;5056848;28;45502;-74
2022/07/07 10:32:32;;;;;;;1.35;1.23;;;25.20;39.40;;;;;;5052577;28;46520;-73
2022/07/07 10:35:00;;;;;;;3.70;1.50;;;25.20;39.50;;;;;;5052665;28;45219;-74
2022/07/07 10:37:27;;;;;;;2.72;1.30;;;25.20;39.30;;;;;;5052425;28;45274;-73
2022/07/07 10:39:55;;;;;;;3.08;1.10;;;25.20;39.40;;;;;;5052771;28;45228;-73
2022/07/07 10:42:55;;;;;;;5.32;1.17;;;25.10;39.60;;;;;;5052358;28;46684;-73
2022/07/07 10:45:23;;;;;;;1.33;1.17;;;25.20;39.80;;;;;;5052350;28;45283;-73
2022/07/07 10:47:50;;;;;;;2.58;1.13;;;25.20;39.60;;;;;;5052071;28;45226;-73
2022/07/07 10:50:28;;;;;;;2.95;1.30;;;25.20;39.70;;;;;;5052785;28;45166;-73
2022/07/07 10:52:55;;;;;;;2.72;1.20;;;25.10;40.00;;;;;;5047556;28;46500;-73
2022/07/07 10:55:22;;;;;;;4.30;1.42;;;25.20;40.10;;;;;;5048974;28;45281;-73
2022/07/07 10:57:49;;;;;;;2.30;1.20;;;25.20;40.00;;;;;;5048900;28;45297;-74
2022/07/07 11:00:18;;;;;;;1.73;1.35;;;25.10;40.80;;;;;;5048997;28;45412;-73
2022/07/07 11:02:48;;;;;;;2.17;1.15;;;25.10;40.60;;;;;;5048596;28;46620;-72
2022/07/07 11:05:29;;;;;;;1.33;1.10;;;25.10;40.60;;;;;;5047989;28;45257;-74
2022/07/07 11:08:13;;;;;;;2.65;1.10;;;25.20;40.30;;;;;;5048411;28;45364;-73
2022/07/07 11:10:55;;;;;;;1.80;1.10;;;25.20;40.50;;;;;;5049195;28;45181;-73
2022/07/07 11:13:29;;;;;;;3.17;1.23;;;25.20;40.50;;;;;;5048529;28;45727;-74
2022/07/07 11:16:11;;;;;;;1.77;1.05;;;25.20;40.40;;;;;;5048681;28;45293;-73
2022/07/07 11:18:39;;;;;;;2.53;1.45;;;25.20;40.30;;;;;;5048907;28;45395;-72
2022/07/07 11:21:06;;;;;;;4.88;1.70;;;25.20;40.50;;;;;;5048872;28;45322;-72
2022/07/07 11:23:44;;;;;;;4.63;1.63;;;25.20;40.20;;;;;;5048636;28;46648;-72
2022/07/07 11:26:11;;;;;;;4.25;1.45;;;25.10;40.30;;;;;;5048278;28;45402;-72
2022/07/07 11:28:37;;;;;;;2.80;1.10;;;25.10;40.60;;;;;;5052231;28;45324;-72
2022/07/07 11:31:06;;;;;;;1.90;1.23;;;25.10;40.80;;;;;;5068581;28;45256;-72
2022/07/07 11:33:33;;;;;;;2.53;1.25;;;25.00;40.90;;;;;;5068231;28;47367;-72
2022/07/07 11:36:09;;;;;;;1.65;1.20;;;25.00;40.80;;;;;;5068452;28;45194;-72
2022/07/07 11:38:36;;;;;;;1.30;0.90;;;25.10;40.80;;;;;;5068441;28;45430;-72
2022/07/07 11:41:02;;;;;;;2.13;1.08;;;25.10;40.60;;;;;;5068567;28;45273;-73
2022/07/07 11:43:29;;;;;;;2.55;1.30;;;25.10;40.50;;;;;;5068147;28;46422;-72
2022/07/07 11:45:56;;;;;;;2.92;1.10;;;25.10;40.40;;;;;;5068267;28;45246;-72
2022/07/07 11:48:23;;;;;;;4.25;1.58;;;25.20;40.40;;;;;;5068471;28;45136;-72
2022/07/07 11:50:50;;;;;;;2.58;1.50;;;25.30;40.30;;;;;;5068466;28;45202;-72
2022/07/07 11:53:18;;;;;;;1.50;1.40;;;25.30;40.10;;;;;;5068283;28;46388;-72
2022/07/07 11:55:45;;;;;;;2.88;1.48;;;25.30;40.30;;;;;;5068139;28;45351;-72
2022/07/07 11:58:12;;;;;;;1.73;1.55;;;25.40;40.30;;;;;;5068229;28;45166;-72
2022/07/07 12:00:40;;;;;;;3.88;1.60;;;25.50;40.40;;;;;;5068512;28;45175;-72
2022/07/07 12:03:07;;;;;;;2.35;1.42;;;25.60;40.40;;;;;;5067672;28;47326;-72
2022/07/07 12:05:35;;;;;;;1.73;1.40;;;25.60;40.00;;;;;;5067592;28;45302;-73
2022/07/07 12:08:03;;;;;;;1.83;1.20;;;25.70;40.10;;;;;;5067558;28;45391;-72
2022/07/07 12:10:32;;;;;;;2.67;1.20;;;25.70;39.80;;;;;;5068125;28;45196;-71
2022/07/07 12:13:01;;;;;;;4.70;1.52;;;25.80;39.80;;;;;;5058875;28;45323;-70
2022/07/07 12:15:29;;;;;;;2.22;1.00;;;25.80;39.30;;;;;;5047815;28;45237;-67
2022/07/07 12:17:55;;;;;;;3.03;1.25;;;25.80;39.40;;;;;;5047036;28;45271;-72
2022/07/07 12:20:22;;;;;;;3.80;1.30;;;25.80;39.90;;;;;;5046463;28;45370;-71
2022/07/07 12:22:51;;;;;;;1.60;1.10;;;25.80;39.70;;;;;;5059004;28;46378;-71
2022/07/07 12:25:18;;;;;;;4.93;1.60;;;25.90;39.90;;;;;;5067650;28;45144;-71
2022/07/07 12:27:56;;;;;;;3.03;1.30;;;25.90;39.90;;;;;;5067531;28;45198;-71
2022/07/07 12:30:23;;;;;;;3.65;1.27;;;25.90;39.60;;;;;;5048660;28;45428;-71
2022/07/07 12:32:50;;;;;;;2.40;1.08;;;26.00;39.80;;;;;;5047191;28;46370;-71
2022/07/07 12:35:31;;;;;;;2.88;1.25;;;26.00;39.60;;;;;;5047317;28;45197;-71
2022/07/07 12:37:58;;;;;;;3.40;1.40;;;26.00;40.00;;;;;;5047526;28;45451;-72
2022/07/07 12:40:25;;;;;;;3.58;1.05;;;26.00;39.80;;;;;;5047545;28;45554;-73
2022/07/07 12:42:52;;;;;;;3.78;1.27;;;26.10;39.90;;;;;;5047071;28;45359;-72
2022/07/07 12:45:20;;;;;;;5.15;1.20;;;26.10;39.90;;;;;;5047029;28;45197;-72
2022/07/07 12:47:48;;;;;;;3.88;1.20;;;26.00;39.70;;;;;;5047174;28;45195;-71
2022/07/07 12:50:14;;;;;;;8.73;1.63;;;26.10;40.60;;;;;;5046739;28;45300;-73
2022/07/07 12:52:41;;;;;;;6.93;1.10;;;26.10;40.10;;;;;;5046847;28;45484;-72